sensor_id;sensor_type;location;lat;lon;timestamp;pressure;altitude;pressure_sealevel;temperature
41593;BMP180;28026;48.562;14.440;2023-07-08T00:01:21;94321.00;;;26.70
41593;BMP180;28026;48.562;14.440;2023-07-08T00:03:52;94317.00;;;26.70
41593;BMP180;28026;48.562;14.440;2023-07-08T00:06:26;94321.00;;;26.60
41593;BMP180;28026;48.562;14.440;2023-07-08T00:08:58;94311.00;;;26.60
41593;BMP180;28026;48.562;14.440;2023-07-08T00:11:29;94313.00;;;26.60
41593;BMP180;28026;48.562;14.440;2023-07-08T00:14:00;94314.00;;;26.60
41593;BMP180;28026;48.562;14.440;2023-07-08T00:16:31;94316.00;;;26.50
41593;BMP180;28026;48.562;14.440;2023-07-08T00:19:02;94318.00;;;26.50
41593;BMP180;28026;48.562;14.440;2023-07-08T00:21:37;94314.00;;;26.50
41593;BMP180;28026;48.562;14.440;2023-07-08T00:24:07;94312.00;;;26.50
41593;BMP180;28026;48.562;14.440;2023-07-08T00:26:38;94314.00;;;26.40
41593;BMP180;28026;48.562;14.440;2023-07-08T00:29:16;94325.00;;;26.40
41593;BMP180;28026;48.562;14.440;2023-07-08T00:31:47;94325.00;;;26.40
41593;BMP180;28026;48.562;14.440;2023-07-08T00:34:18;94321.00;;;26.30
41593;BMP180;28026;48.562;14.440;2023-07-08T00:36:49;94310.00;;;26.30
41593;BMP180;28026;48.562;14.440;2023-07-08T00:39:20;94316.00;;;26.20
41593;BMP180;28026;48.562;14.440;2023-07-08T00:41:52;94320.00;;;26.20
41593;BMP180;28026;48.562;14.440;2023-07-08T00:44:24;94323.00;;;26.20
41593;BMP180;28026;48.562;14.440;2023-07-08T00:47:04;94314.00;;;26.20
41593;BMP180;28026;48.562;14.440;2023-07-08T00:49:51;94314.00;;;26.20
41593;BMP180;28026;48.562;14.440;2023-07-08T00:52:29;94296.00;;;26.20
41593;BMP180;28026;48.562;14.440;2023-07-08T00:55:08;94290.00;;;26.10
41593;BMP180;28026;48.562;14.440;2023-07-08T00:57:44;94295.00;;;26.10
41593;BMP180;28026;48.562;14.440;2023-07-08T01:00:17;94290.00;;;26.10
41593;BMP180;28026;48.562;14.440;2023-07-08T01:02:54;94289.00;;;26.10
41593;BMP180;28026;48.562;14.440;2023-07-08T01:05:29;94288.00;;;26.10
41593;BMP180;28026;48.562;14.440;2023-07-08T01:08:04;94285.00;;;26.00
41593;BMP180;28026;48.562;14.440;2023-07-08T01:10:49;94280.00;;;26.00
41593;BMP180;28026;48.562;14.440;2023-07-08T01:13:24;94278.00;;;26.00
41593;BMP180;28026;48.562;14.440;2023-07-08T01:15:55;94283.00;;;25.90
41593;BMP180;28026;48.562;14.440;2023-07-08T01:18:28;94285.00;;;25.80
41593;BMP180;28026;48.562;14.440;2023-07-08T01:21:25;94280.00;;;25.70
41593;BMP180;28026;48.562;14.440;2023-07-08T01:24:07;94268.00;;;25.60
41593;BMP180;28026;48.562;14.440;2023-07-08T01:26:44;94253.00;;;25.60
41593;BMP180;28026;48.562;14.440;2023-07-08T01:29:17;94261.00;;;25.60
41593;BMP180;28026;48.562;14.440;2023-07-08T01:31:48;94255.00;;;25.60
41593;BMP180;28026;48.562;14.440;2023-07-08T01:34:19;94255.00;;;25.60
41593;BMP180;28026;48.562;14.440;2023-07-08T01:36:56;94248.00;;;25.60
41593;BMP180;28026;48.562;14.440;2023-07-08T01:39:31;94247.00;;;25.60
41593;BMP180;28026;48.562;14.440;2023-07-08T01:42:02;94244.00;;;25.60
41593;BMP180;28026;48.562;14.440;2023-07-08T01:44:36;94238.00;;;25.60
41593;BMP180;28026;48.562;14.440;2023-07-08T01:47:20;94231.00;;;25.60
41593;BMP180;28026;48.562;14.440;2023-07-08T01:49:53;94227.00;;;25.60
41593;BMP180;28026;48.562;14.440;2023-07-08T01:52:24;94232.00;;;25.60
41593;BMP180;28026;48.562;14.440;2023-07-08T01:54:55;94218.00;;;25.60
41593;BMP180;28026;48.562;14.440;2023-07-08T01:57:26;94213.00;;;25.60
41593;BMP180;28026;48.562;14.440;2023-07-08T01:59:57;94219.00;;;25.60
41593;BMP180;28026;48.562;14.440;2023-07-08T02:02:28;94209.00;;;25.60
41593;BMP180;28026;48.562;14.440;2023-07-08T02:04:59;94212.00;;;25.50
41593;BMP180;28026;48.562;14.440;2023-07-08T02:07:30;94222.00;;;25.50
41593;BMP180;28026;48.562;14.440;2023-07-08T02:10:01;94217.00;;;25.50
41593;BMP180;28026;48.562;14.440;2023-07-08T02:12:32;94223.00;;;25.50
41593;BMP180;28026;48.562;14.440;2023-07-08T02:15:04;94223.00;;;25.50
41593;BMP180;28026;48.562;14.440;2023-07-08T02:17:35;94217.00;;;25.40
41593;BMP180;28026;48.562;14.440;2023-07-08T02:20:06;94213.00;;;25.40
41593;BMP180;28026;48.562;14.440;2023-07-08T02:22:39;94214.00;;;25.30
41593;BMP180;28026;48.562;14.440;2023-07-08T02:25:10;94213.00;;;25.30
41593;BMP180;28026;48.562;14.440;2023-07-08T02:27:41;94212.00;;;25.20
41593;BMP180;28026;48.562;14.440;2023-07-08T02:30:13;94207.00;;;25.20
41593;BMP180;28026;48.562;14.440;2023-07-08T02:32:43;94210.00;;;25.20
41593;BMP180;28026;48.562;14.440;2023-07-08T02:35:19;94207.00;;;25.10
41593;BMP180;28026;48.562;14.440;2023-07-08T02:37:50;94207.00;;;25.00
41593;BMP180;28026;48.562;14.440;2023-07-08T02:40:21;94208.00;;;24.90
41593;BMP180;28026;48.562;14.440;2023-07-08T02:42:52;94213.00;;;24.70
41593;BMP180;28026;48.562;14.440;2023-07-08T02:45:23;94214.00;;;24.70
41593;BMP180;28026;48.562;14.440;2023-07-08T02:47:54;94214.00;;;24.60
41593;BMP180;28026;48.562;14.440;2023-07-08T02:50:25;94207.00;;;24.60
41593;BMP180;28026;48.562;14.440;2023-07-08T02:52:56;94216.00;;;24.50
41593;BMP180;28026;48.562;14.440;2023-07-08T02:55:27;94222.00;;;24.50
41593;BMP180;28026;48.562;14.440;2023-07-08T02:57:58;94220.00;;;24.40
41593;BMP180;28026;48.562;14.440;2023-07-08T03:00:28;94216.00;;;24.40
41593;BMP180;28026;48.562;14.440;2023-07-08T03:02:59;94221.00;;;24.40
41593;BMP180;28026;48.562;14.440;2023-07-08T03:05:30;94217.00;;;24.30
41593;BMP180;28026;48.562;14.440;2023-07-08T03:08:01;94214.00;;;24.20
41593;BMP180;28026;48.562;14.440;2023-07-08T03:10:32;94221.00;;;24.20
41593;BMP180;28026;48.562;14.440;2023-07-08T03:13:03;94205.00;;;24.10
41593;BMP180;28026;48.562;14.440;2023-07-08T03:15:34;94216.00;;;24.00
41593;BMP180;28026;48.562;14.440;2023-07-08T03:18:05;94220.00;;;23.90
41593;BMP180;28026;48.562;14.440;2023-07-08T03:20:35;94219.00;;;23.90
41593;BMP180;28026;48.562;14.440;2023-07-08T03:23:10;94224.00;;;23.90
41593;BMP180;28026;48.562;14.440;2023-07-08T03:25:42;94230.00;;;23.80
41593;BMP180;28026;48.562;14.440;2023-07-08T03:28:13;94222.00;;;23.80
41593;BMP180;28026;48.562;14.440;2023-07-08T03:30:51;94231.00;;;23.80
41593;BMP180;28026;48.562;14.440;2023-07-08T03:33:23;94232.00;;;23.80
41593;BMP180;28026;48.562;14.440;2023-07-08T03:35:55;94225.00;;;23.80
41593;BMP180;28026;48.562;14.440;2023-07-08T03:38:26;94223.00;;;23.80
41593;BMP180;28026;48.562;14.440;2023-07-08T03:40:57;94222.00;;;23.70
41593;BMP180;28026;48.562;14.440;2023-07-08T03:43:28;94216.00;;;23.80
41593;BMP180;28026;48.562;14.440;2023-07-08T03:45:59;94226.00;;;23.80
41593;BMP180;28026;48.562;14.440;2023-07-08T03:48:30;94217.00;;;23.70
41593;BMP180;28026;48.562;14.440;2023-07-08T03:51:01;94222.00;;;23.60
41593;BMP180;28026;48.562;14.440;2023-07-08T03:53:32;94217.00;;;23.50
41593;BMP180;28026;48.562;14.440;2023-07-08T03:56:03;94219.00;;;23.40
41593;BMP180;28026;48.562;14.440;2023-07-08T03:58:34;94218.00;;;23.40
41593;BMP180;28026;48.562;14.440;2023-07-08T04:01:18;94217.00;;;23.40
41593;BMP180;28026;48.562;14.440;2023-07-08T04:03:54;94215.00;;;23.50
41593;BMP180;28026;48.562;14.440;2023-07-08T04:06:27;94221.00;;;23.50
41593;BMP180;28026;48.562;14.440;2023-07-08T04:08:59;94220.00;;;23.60
41593;BMP180;28026;48.562;14.440;2023-07-08T04:11:30;94228.00;;;23.60
41593;BMP180;28026;48.562;14.440;2023-07-08T04:14:01;94214.00;;;23.60
41593;BMP180;28026;48.562;14.440;2023-07-08T04:16:54;94219.00;;;23.60
41593;BMP180;28026;48.562;14.440;2023-07-08T04:19:28;94219.00;;;23.60
41593;BMP180;28026;48.562;14.440;2023-07-08T04:22:01;94217.00;;;23.60
41593;BMP180;28026;48.562;14.440;2023-07-08T04:24:33;94210.00;;;23.60
41593;BMP180;28026;48.562;14.440;2023-07-08T04:27:04;94214.00;;;23.70
41593;BMP180;28026;48.562;14.440;2023-07-08T04:29:35;94216.00;;;23.70
41593;BMP180;28026;48.562;14.440;2023-07-08T04:32:07;94209.00;;;23.70
41593;BMP180;28026;48.562;14.440;2023-07-08T04:34:38;94214.00;;;23.70
41593;BMP180;28026;48.562;14.440;2023-07-08T04:37:15;94211.00;;;23.70
41593;BMP180;28026;48.562;14.440;2023-07-08T04:39:46;94215.00;;;23.80
41593;BMP180;28026;48.562;14.440;2023-07-08T04:42:17;94214.00;;;23.80
41593;BMP180;28026;48.562;14.440;2023-07-08T04:44:48;94223.00;;;23.90
41593;BMP180;28026;48.562;14.440;2023-07-08T04:47:20;94219.00;;;24.00
41593;BMP180;28026;48.562;14.440;2023-07-08T04:49:50;94215.00;;;24.00
41593;BMP180;28026;48.562;14.440;2023-07-08T04:52:21;94209.00;;;24.10
41593;BMP180;28026;48.562;14.440;2023-07-08T04:54:52;94207.00;;;24.20
41593;BMP180;28026;48.562;14.440;2023-07-08T04:57:23;94213.00;;;24.30
41593;BMP180;28026;48.562;14.440;2023-07-08T04:59:55;94223.00;;;24.40
41593;BMP180;28026;48.562;14.440;2023-07-08T05:02:26;94212.00;;;24.50
41593;BMP180;28026;48.562;14.440;2023-07-08T05:04:57;94218.00;;;24.60
41593;BMP180;28026;48.562;14.440;2023-07-08T05:07:28;94210.00;;;24.70
41593;BMP180;28026;48.562;14.440;2023-07-08T05:09:59;94210.00;;;24.70
41593;BMP180;28026;48.562;14.440;2023-07-08T05:12:29;94204.00;;;24.90
41593;BMP180;28026;48.562;14.440;2023-07-08T05:15:00;94207.00;;;25.10
41593;BMP180;28026;48.562;14.440;2023-07-08T05:17:31;94204.00;;;25.20
41593;BMP180;28026;48.562;14.440;2023-07-08T05:20:03;94203.00;;;25.30
41593;BMP180;28026;48.562;14.440;2023-07-08T05:22:35;94209.00;;;25.20
41593;BMP180;28026;48.562;14.440;2023-07-08T05:25:06;94200.00;;;25.10
41593;BMP180;28026;48.562;14.440;2023-07-08T05:27:38;94205.00;;;25.30
41593;BMP180;28026;48.562;14.440;2023-07-08T05:30:16;94209.00;;;25.50
41593;BMP180;28026;48.562;14.440;2023-07-08T05:32:48;94204.00;;;25.60
41593;BMP180;28026;48.562;14.440;2023-07-08T05:35:19;94199.00;;;25.90
41593;BMP180;28026;48.562;14.440;2023-07-08T05:37:50;94201.00;;;26.10
41593;BMP180;28026;48.562;14.440;2023-07-08T05:40:21;94196.00;;;26.30
41593;BMP180;28026;48.562;14.440;2023-07-08T05:42:52;94204.00;;;26.60
41593;BMP180;28026;48.562;14.440;2023-07-08T05:45:23;94205.00;;;26.70
41593;BMP180;28026;48.562;14.440;2023-07-08T05:47:54;94199.00;;;26.80
41593;BMP180;28026;48.562;14.440;2023-07-08T05:50:24;94199.00;;;26.80
41593;BMP180;28026;48.562;14.440;2023-07-08T05:52:55;94204.00;;;26.80
41593;BMP180;28026;48.562;14.440;2023-07-08T05:55:26;94211.00;;;26.80
41593;BMP180;28026;48.562;14.440;2023-07-08T05:57:57;94207.00;;;26.80
41593;BMP180;28026;48.562;14.440;2023-07-08T06:00:28;94214.00;;;27.00
41593;BMP180;28026;48.562;14.440;2023-07-08T06:02:59;94210.00;;;27.10
41593;BMP180;28026;48.562;14.440;2023-07-08T06:05:30;94214.00;;;27.20
41593;BMP180;28026;48.562;14.440;2023-07-08T06:08:05;94220.00;;;27.40
41593;BMP180;28026;48.562;14.440;2023-07-08T06:10:42;94220.00;;;27.50
41593;BMP180;28026;48.562;14.440;2023-07-08T06:13:16;94223.00;;;27.70
41593;BMP180;28026;48.562;14.440;2023-07-08T06:15:48;94219.00;;;27.80
41593;BMP180;28026;48.562;14.440;2023-07-08T06:18:19;94216.00;;;28.00
41593;BMP180;28026;48.562;14.440;2023-07-08T06:20:55;94220.00;;;28.30
41593;BMP180;28026;48.562;14.440;2023-07-08T06:23:28;94212.00;;;28.60
41593;BMP180;28026;48.562;14.440;2023-07-08T06:26:00;94211.00;;;29.00
41593;BMP180;28026;48.562;14.440;2023-07-08T06:28:31;94211.00;;;29.20
41593;BMP180;28026;48.562;14.440;2023-07-08T06:31:02;94217.00;;;29.50
41593;BMP180;28026;48.562;14.440;2023-07-08T06:33:33;94218.00;;;29.70
41593;BMP180;28026;48.562;14.440;2023-07-08T06:36:04;94214.00;;;29.90
41593;BMP180;28026;48.562;14.440;2023-07-08T06:38:35;94218.00;;;30.10
41593;BMP180;28026;48.562;14.440;2023-07-08T06:41:06;94214.00;;;30.30
41593;BMP180;28026;48.562;14.440;2023-07-08T06:43:37;94217.00;;;30.40
41593;BMP180;28026;48.562;14.440;2023-07-08T06:46:08;94214.00;;;30.50
41593;BMP180;28026;48.562;14.440;2023-07-08T06:48:39;94209.00;;;30.60
41593;BMP180;28026;48.562;14.440;2023-07-08T06:51:10;94213.00;;;30.70
41593;BMP180;28026;48.562;14.440;2023-07-08T06:53:41;94209.00;;;30.70
41593;BMP180;28026;48.562;14.440;2023-07-08T06:56:12;94202.00;;;30.80
41593;BMP180;28026;48.562;14.440;2023-07-08T06:58:43;94211.00;;;31.00
41593;BMP180;28026;48.562;14.440;2023-07-08T07:01:14;94212.00;;;31.20
41593;BMP180;28026;48.562;14.440;2023-07-08T07:03:45;94202.00;;;31.30
41593;BMP180;28026;48.562;14.440;2023-07-08T07:06:16;94200.00;;;31.50
41593;BMP180;28026;48.562;14.440;2023-07-08T07:08:48;94209.00;;;31.60
41593;BMP180;28026;48.562;14.440;2023-07-08T07:11:19;94196.00;;;31.80
41593;BMP180;28026;48.562;14.440;2023-07-08T07:13:50;94211.00;;;31.90
41593;BMP180;28026;48.562;14.440;2023-07-08T07:16:21;94210.00;;;32.10
41593;BMP180;28026;48.562;14.440;2023-07-08T07:18:52;94210.00;;;32.20
41593;BMP180;28026;48.562;14.440;2023-07-08T07:21:23;94218.00;;;32.30
41593;BMP180;28026;48.562;14.440;2023-07-08T07:23:53;94218.00;;;32.40
41593;BMP180;28026;48.562;14.440;2023-07-08T07:26:24;94217.00;;;32.40
41593;BMP180;28026;48.562;14.440;2023-07-08T07:28:55;94215.00;;;32.40
41593;BMP180;28026;48.562;14.440;2023-07-08T07:31:26;94220.00;;;32.40
41593;BMP180;28026;48.562;14.440;2023-07-08T07:33:59;94214.00;;;32.50
41593;BMP180;28026;48.562;14.440;2023-07-08T07:36:30;94205.00;;;32.60
41593;BMP180;28026;48.562;14.440;2023-07-08T07:39:02;94207.00;;;32.80
41593;BMP180;28026;48.562;14.440;2023-07-08T07:41:32;94211.00;;;32.90
41593;BMP180;28026;48.562;14.440;2023-07-08T07:44:03;94207.00;;;33.00
41593;BMP180;28026;48.562;14.440;2023-07-08T07:46:34;94205.00;;;32.90
41593;BMP180;28026;48.562;14.440;2023-07-08T07:49:05;94200.00;;;32.80
41593;BMP180;28026;48.562;14.440;2023-07-08T07:51:36;94202.00;;;32.70
41593;BMP180;28026;48.562;14.440;2023-07-08T07:54:07;94196.00;;;32.70
41593;BMP180;28026;48.562;14.440;2023-07-08T07:56:38;94201.00;;;32.70
41593;BMP180;28026;48.562;14.440;2023-07-08T07:59:10;94205.00;;;32.80
41593;BMP180;28026;48.562;14.440;2023-07-08T08:01:41;94193.00;;;32.80
41593;BMP180;28026;48.562;14.440;2023-07-08T08:04:13;94202.00;;;32.80
41593;BMP180;28026;48.562;14.440;2023-07-08T08:06:44;94202.00;;;32.80
41593;BMP180;28026;48.562;14.440;2023-07-08T08:09:15;94199.00;;;32.80
41593;BMP180;28026;48.562;14.440;2023-07-08T08:11:46;94209.00;;;32.90
41593;BMP180;28026;48.562;14.440;2023-07-08T08:14:17;94196.00;;;33.10
41593;BMP180;28026;48.562;14.440;2023-07-08T08:16:48;94202.00;;;33.40
41593;BMP180;28026;48.562;14.440;2023-07-08T08:19:19;94199.00;;;33.50
41593;BMP180;28026;48.562;14.440;2023-07-08T08:21:50;94201.00;;;33.70
41593;BMP180;28026;48.562;14.440;2023-07-08T08:24:21;94201.00;;;33.70
41593;BMP180;28026;48.562;14.440;2023-07-08T08:26:52;94204.00;;;33.80
41593;BMP180;28026;48.562;14.440;2023-07-08T08:29:23;94208.00;;;33.90
41593;BMP180;28026;48.562;14.440;2023-07-08T08:31:53;94212.00;;;33.90
41593;BMP180;28026;48.562;14.440;2023-07-08T08:34:25;94209.00;;;34.10
41593;BMP180;28026;48.562;14.440;2023-07-08T08:36:55;94211.00;;;34.20
41593;BMP180;28026;48.562;14.440;2023-07-08T08:39:27;94214.00;;;34.40
41593;BMP180;28026;48.562;14.440;2023-07-08T08:42:00;94221.00;;;34.50
41593;BMP180;28026;48.562;14.440;2023-07-08T08:44:35;94216.00;;;34.60
41593;BMP180;28026;48.562;14.440;2023-07-08T08:47:37;94222.00;;;34.80
41593;BMP180;28026;48.562;14.440;2023-07-08T08:50:35;94223.00;;;34.80
41593;BMP180;28026;48.562;14.440;2023-07-08T08:53:17;94226.00;;;35.00
41593;BMP180;28026;48.562;14.440;2023-07-08T08:56:25;94215.00;;;35.30
41593;BMP180;28026;48.562;14.440;2023-07-08T09:00:18;94223.00;;;35.60
41593;BMP180;28026;48.562;14.440;2023-07-08T09:02:40;94217.00;;;35.60
41593;BMP180;28026;48.562;14.440;2023-07-08T09:05:17;94217.00;;;35.30
41593;BMP180;28026;48.562;14.440;2023-07-08T09:08:32;94219.00;;;35.10
41593;BMP180;28026;48.562;14.440;2023-07-08T09:11:25;94214.00;;;35.20
41593;BMP180;28026;48.562;14.440;2023-07-08T09:13:58;94217.00;;;35.40
41593;BMP180;28026;48.562;14.440;2023-07-08T09:19:35;94214.00;;;35.90
41593;BMP180;28026;48.562;14.440;2023-07-08T09:28:08;94217.00;;;37.00
41593;BMP180;28026;48.562;14.440;2023-07-08T09:30:40;94210.00;;;36.80
41593;BMP180;28026;48.562;14.440;2023-07-08T09:33:11;94206.00;;;37.00
41593;BMP180;28026;48.562;14.440;2023-07-08T09:35:46;94211.00;;;37.00
41593;BMP180;28026;48.562;14.440;2023-07-08T09:38:22;94214.00;;;37.00
41593;BMP180;28026;48.562;14.440;2023-07-08T09:40:53;94202.00;;;37.20
41593;BMP180;28026;48.562;14.440;2023-07-08T09:43:34;94207.00;;;37.40
41593;BMP180;28026;48.562;14.440;2023-07-08T09:46:12;94208.00;;;37.50
41593;BMP180;28026;48.562;14.440;2023-07-08T09:48:44;94213.00;;;37.60
41593;BMP180;28026;48.562;14.440;2023-07-08T09:51:16;94214.00;;;37.40
41593;BMP180;28026;48.562;14.440;2023-07-08T09:53:46;94208.00;;;37.30
41593;BMP180;28026;48.562;14.440;2023-07-08T09:56:18;94214.00;;;37.40
41593;BMP180;28026;48.562;14.440;2023-07-08T09:58:50;94216.00;;;37.60
41593;BMP180;28026;48.562;14.440;2023-07-08T10:01:25;94212.00;;;37.50
41593;BMP180;28026;48.562;14.440;2023-07-08T10:04:01;94215.00;;;37.50
41593;BMP180;28026;48.562;14.440;2023-07-08T10:06:34;94220.00;;;37.60
41593;BMP180;28026;48.562;14.440;2023-07-08T10:09:23;94226.00;;;37.60
41593;BMP180;28026;48.562;14.440;2023-07-08T10:12:02;94228.00;;;37.50
41593;BMP180;28026;48.562;14.440;2023-07-08T10:14:50;94227.00;;;37.70
41593;BMP180;28026;48.562;14.440;2023-07-08T10:17:25;94223.00;;;37.90
41593;BMP180;28026;48.562;14.440;2023-07-08T10:19:57;94231.00;;;37.80
41593;BMP180;28026;48.562;14.440;2023-07-08T10:26:30;94224.00;;;38.20
41593;BMP180;28026;48.562;14.440;2023-07-08T10:29:20;94235.00;;;38.40
41593;BMP180;28026;48.562;14.440;2023-07-08T10:35:36;94234.00;;;38.00
41593;BMP180;28026;48.562;14.440;2023-07-08T10:38:49;94232.00;;;38.00
41593;BMP180;28026;48.562;14.440;2023-07-08T10:44:58;94221.00;;;38.10
41593;BMP180;28026;48.562;14.440;2023-07-08T11:00:40;94234.00;;;38.50
41593;BMP180;28026;48.562;14.440;2023-07-08T11:06:14;94213.00;;;38.90
41593;BMP180;28026;48.562;14.440;2023-07-08T11:09:03;94220.00;;;39.10
41593;BMP180;28026;48.562;14.440;2023-07-08T11:11:52;94222.00;;;38.90
41593;BMP180;28026;48.562;14.440;2023-07-08T11:14:42;94215.00;;;38.90
41593;BMP180;28026;48.562;14.440;2023-07-08T11:17:32;94222.00;;;39.00
41593;BMP180;28026;48.562;14.440;2023-07-08T11:20:36;94221.00;;;39.20
41593;BMP180;28026;48.562;14.440;2023-07-08T11:23:37;94221.00;;;39.30
41593;BMP180;28026;48.562;14.440;2023-07-08T11:26:38;94228.00;;;39.20
41593;BMP180;28026;48.562;14.440;2023-07-08T11:29:33;94219.00;;;39.30
41593;BMP180;28026;48.562;14.440;2023-07-08T11:32:16;94224.00;;;39.60
41593;BMP180;28026;48.562;14.440;2023-07-08T11:34:51;94218.00;;;39.80
41593;BMP180;28026;48.562;14.440;2023-07-08T11:37:25;94214.00;;;39.80
41593;BMP180;28026;48.562;14.440;2023-07-08T11:43:01;94217.00;;;40.00
41593;BMP180;28026;48.562;14.440;2023-07-08T11:45:43;94222.00;;;40.20
41593;BMP180;28026;48.562;14.440;2023-07-08T11:48:22;94219.00;;;40.30
41593;BMP180;28026;48.562;14.440;2023-07-08T11:50:58;94216.00;;;40.30
41593;BMP180;28026;48.562;14.440;2023-07-08T11:53:38;94216.00;;;40.20
41593;BMP180;28026;48.562;14.440;2023-07-08T11:56:22;94214.00;;;40.00
41593;BMP180;28026;48.562;14.440;2023-07-08T11:59:16;94202.00;;;40.10
41593;BMP180;28026;48.562;14.440;2023-07-08T12:02:14;94200.00;;;40.10
41593;BMP180;28026;48.562;14.440;2023-07-08T12:05:12;94198.00;;;40.20
41593;BMP180;28026;48.562;14.440;2023-07-08T12:07:50;94195.00;;;40.20
41593;BMP180;28026;48.562;14.440;2023-07-08T12:10:46;94198.00;;;40.00
41593;BMP180;28026;48.562;14.440;2023-07-08T12:13:24;94204.00;;;39.90
41593;BMP180;28026;48.562;14.440;2023-07-08T12:15:56;94202.00;;;40.00
41593;BMP180;28026;48.562;14.440;2023-07-08T12:18:34;94208.00;;;40.00
41593;BMP180;28026;48.562;14.440;2023-07-08T12:21:09;94205.00;;;39.90
41593;BMP180;28026;48.562;14.440;2023-07-08T12:23:46;94204.00;;;39.70
41593;BMP180;28026;48.562;14.440;2023-07-08T12:26:17;94208.00;;;39.80
41593;BMP180;28026;48.562;14.440;2023-07-08T12:28:49;94200.00;;;39.90
41593;BMP180;28026;48.562;14.440;2023-07-08T12:31:22;94204.00;;;39.70
41593;BMP180;28026;48.562;14.440;2023-07-08T12:33:54;94193.00;;;39.80
41593;BMP180;28026;48.562;14.440;2023-07-08T12:36:28;94198.00;;;40.00
41593;BMP180;28026;48.562;14.440;2023-07-08T12:39:02;94205.00;;;40.10
41593;BMP180;28026;48.562;14.440;2023-07-08T12:41:35;94201.00;;;39.90
41593;BMP180;28026;48.562;14.440;2023-07-08T12:44:19;94200.00;;;39.70
41593;BMP180;28026;48.562;14.440;2023-07-08T12:46:54;94196.00;;;39.50
41593;BMP180;28026;48.562;14.440;2023-07-08T12:49:25;94200.00;;;39.50
41593;BMP180;28026;48.562;14.440;2023-07-08T12:51:57;94189.00;;;39.60
41593;BMP180;28026;48.562;14.440;2023-07-08T12:54:28;94198.00;;;39.90
41593;BMP180;28026;48.562;14.440;2023-07-08T12:57:00;94189.00;;;40.20
41593;BMP180;28026;48.562;14.440;2023-07-08T12:59:32;94198.00;;;40.40
41593;BMP180;28026;48.562;14.440;2023-07-08T13:02:13;94186.00;;;40.70
41593;BMP180;28026;48.562;14.440;2023-07-08T13:04:58;94188.00;;;40.90
41593;BMP180;28026;48.562;14.440;2023-07-08T13:07:37;94188.00;;;40.80
41593;BMP180;28026;48.562;14.440;2023-07-08T13:10:21;94197.00;;;40.70
41593;BMP180;28026;48.562;14.440;2023-07-08T13:13:00;94189.00;;;40.70
41593;BMP180;28026;48.562;14.440;2023-07-08T13:15:40;94192.00;;;40.70
41593;BMP180;28026;48.562;14.440;2023-07-08T13:21:14;94192.00;;;40.00
41593;BMP180;28026;48.562;14.440;2023-07-08T13:23:46;94198.00;;;39.70
41593;BMP180;28026;48.562;14.440;2023-07-08T13:26:21;94202.00;;;39.10
41593;BMP180;28026;48.562;14.440;2023-07-08T13:29:04;94202.00;;;39.00
41593;BMP180;28026;48.562;14.440;2023-07-08T13:31:49;94195.00;;;38.90
41593;BMP180;28026;48.562;14.440;2023-07-08T13:34:24;94194.00;;;38.60
41593;BMP180;28026;48.562;14.440;2023-07-08T13:36:55;94196.00;;;38.40
41593;BMP180;28026;48.562;14.440;2023-07-08T13:39:33;94203.00;;;38.30
41593;BMP180;28026;48.562;14.440;2023-07-08T13:42:07;94203.00;;;38.30
41593;BMP180;28026;48.562;14.440;2023-07-08T13:44:44;94211.00;;;38.30
41593;BMP180;28026;48.562;14.440;2023-07-08T13:47:29;94208.00;;;38.10
41593;BMP180;28026;48.562;14.440;2023-07-08T13:50:30;94207.00;;;37.70
41593;BMP180;28026;48.562;14.440;2023-07-08T13:53:24;94203.00;;;37.50
41593;BMP180;28026;48.562;14.440;2023-07-08T13:56:23;94202.00;;;37.30
41593;BMP180;28026;48.562;14.440;2023-07-08T13:59:08;94204.00;;;37.40
41593;BMP180;28026;48.562;14.440;2023-07-08T14:01:50;94202.00;;;37.60
41593;BMP180;28026;48.562;14.440;2023-07-08T14:04:34;94206.00;;;37.70
41593;BMP180;28026;48.562;14.440;2023-07-08T14:07:18;94207.00;;;38.00
41593;BMP180;28026;48.562;14.440;2023-07-08T14:09:52;94204.00;;;38.10
41593;BMP180;28026;48.562;14.440;2023-07-08T14:12:25;94197.00;;;38.00
41593;BMP180;28026;48.562;14.440;2023-07-08T14:14:55;94199.00;;;37.80
41593;BMP180;28026;48.562;14.440;2023-07-08T14:17:27;94196.00;;;37.90
41593;BMP180;28026;48.562;14.440;2023-07-08T14:19:58;94196.00;;;37.90
41593;BMP180;28026;48.562;14.440;2023-07-08T14:22:30;94190.00;;;38.00
41593;BMP180;28026;48.562;14.440;2023-07-08T14:25:08;94195.00;;;37.90
41593;BMP180;28026;48.562;14.440;2023-07-08T14:27:40;94197.00;;;38.00
41593;BMP180;28026;48.562;14.440;2023-07-08T14:30:12;94202.00;;;38.20
41593;BMP180;28026;48.562;14.440;2023-07-08T14:32:44;94202.00;;;38.50
41593;BMP180;28026;48.562;14.440;2023-07-08T14:35:28;94202.00;;;39.00
41593;BMP180;28026;48.562;14.440;2023-07-08T14:38:00;94199.00;;;39.30
41593;BMP180;28026;48.562;14.440;2023-07-08T14:40:37;94199.00;;;39.50
41593;BMP180;28026;48.562;14.440;2023-07-08T14:43:19;94202.00;;;39.70
41593;BMP180;28026;48.562;14.440;2023-07-08T14:45:58;94199.00;;;39.90
41593;BMP180;28026;48.562;14.440;2023-07-08T14:48:33;94198.00;;;40.30
41593;BMP180;28026;48.562;14.440;2023-07-08T14:51:03;94193.00;;;40.60
41593;BMP180;28026;48.562;14.440;2023-07-08T14:53:34;94191.00;;;40.50
41593;BMP180;28026;48.562;14.440;2023-07-08T14:56:15;94192.00;;;40.30
41593;BMP180;28026;48.562;14.440;2023-07-08T14:58:47;94193.00;;;40.30
41593;BMP180;28026;48.562;14.440;2023-07-08T15:01:20;94185.00;;;40.40
41593;BMP180;28026;48.562;14.440;2023-07-08T15:03:52;94187.00;;;40.50
41593;BMP180;28026;48.562;14.440;2023-07-08T15:06:24;94180.00;;;40.50
41593;BMP180;28026;48.562;14.440;2023-07-08T15:08:55;94182.00;;;40.40
41593;BMP180;28026;48.562;14.440;2023-07-08T15:11:26;94190.00;;;40.40
41593;BMP180;28026;48.562;14.440;2023-07-08T15:13:58;94188.00;;;40.40
41593;BMP180;28026;48.562;14.440;2023-07-08T15:16:30;94189.00;;;40.40
41593;BMP180;28026;48.562;14.440;2023-07-08T15:19:08;94173.00;;;40.40
41593;BMP180;28026;48.562;14.440;2023-07-08T15:21:41;94178.00;;;40.40
41593;BMP180;28026;48.562;14.440;2023-07-08T15:24:14;94182.00;;;40.50